Time;durP1;ratioP1;P1;durP2;ratioP2;P2;SDS_P1;SDS_P2;PMS_P1;PMS_P2;Temp;Humidity;BMP_temperature;BMP_pressure;BME280_temperature;BME280_humidity;BME280_pressure;Samples;Min_cycle;Max_cycle;Signal;HPM_P1;HPM_P2
2022/03/27 00:02:13;;;;;;;15.07;6.53;;;7.80;99.90;;;;;;6165109;23;20017;-82
2022/03/27 00:04:39;;;;;;;14.18;5.57;;;7.70;99.90;;;;;;6140087;23;20453;-82
2022/03/27 00:07:04;;;;;;;20.17;6.93;;;7.60;99.90;;;;;;6165162;23;20092;-82
2022/03/27 00:09:30;;;;;;;14.98;7.00;;;7.50;99.90;;;;;;6191571;23;20024;-82
2022/03/27 00:11:55;;;;;;;20.90;7.15;;;7.50;99.90;;;;;;6141756;23;20068;-82
2022/03/27 00:14:21;;;;;;;14.23;6.00;;;7.40;99.90;;;;;;6165841;23;20062;-81
2022/03/27 00:16:46;;;;;;;13.13;6.38;;;7.30;99.90;;;;;;6142228;23;20009;-82
2022/03/27 00:19:12;;;;;;;15.38;6.32;;;7.20;99.90;;;;;;6143257;23;20009;-82
2022/03/27 00:21:38;;;;;;;15.48;6.55;;;7.10;99.90;;;;;;6144853;23;20298;-82
2022/03/27 00:24:04;;;;;;;17.65;7.15;;;7.00;99.90;;;;;;6170314;23;20009;-82
2022/03/27 00:26:30;;;;;;;16.17;6.90;;;7.00;99.90;;;;;;6170538;23;20084;-81
2022/03/27 00:28:56;;;;;;;14.90;6.53;;;6.90;99.90;;;;;;6168637;23;20044;-81
2022/03/27 00:31:21;;;;;;;15.20;6.28;;;6.90;99.90;;;;;;6169229;23;20016;-82
2022/03/27 00:33:47;;;;;;;19.77;8.43;;;6.80;99.90;;;;;;6170020;23;20013;-82
2022/03/27 00:36:14;;;;;;;12.30;6.53;;;6.90;99.90;;;;;;6169512;23;20111;-82
2022/03/27 00:38:42;;;;;;;16.08;6.35;;;6.80;99.90;;;;;;6192486;23;20341;-82
2022/03/27 00:41:08;;;;;;;18.60;6.35;;;6.80;99.90;;;;;;6142122;23;20016;-82
2022/03/27 00:43:35;;;;;;;14.57;6.05;;;6.70;99.90;;;;;;6142525;23;20013;-82
2022/03/27 00:46:00;;;;;;;13.18;6.30;;;6.70;99.90;;;;;;6142495;23;20020;-81
2022/03/27 00:48:26;;;;;;;15.18;6.25;;;6.70;99.90;;;;;;6168632;23;20017;-81
2022/03/27 00:50:53;;;;;;;11.23;5.82;;;6.70;99.90;;;;;;6195197;23;20059;-81
2022/03/27 00:53:20;;;;;;;13.80;5.88;;;6.60;99.90;;;;;;6167716;23;20490;-81
2022/03/27 00:55:46;;;;;;;15.30;6.47;;;6.50;99.90;;;;;;6194232;23;20032;-82
2022/03/27 00:58:13;;;;;;;12.52;5.32;;;6.40;99.90;;;;;;6167870;23;20013;-81
2022/03/27 01:00:38;;;;;;;11.85;5.88;;;6.40;99.90;;;;;;6167386;23;20017;-81
2022/03/27 01:03:11;;;;;;;11.85;4.95;;;6.30;99.90;;;;;;6165831;23;20013;-82
2022/03/27 01:05:38;;;;;;;11.15;5.05;;;6.30;99.90;;;;;;6141980;23;20070;-81
2022/03/27 01:08:10;;;;;;;11.80;5.93;;;6.30;99.90;;;;;;6141756;23;20017;-81
2022/03/27 01:10:36;;;;;;;13.52;6.18;;;6.20;99.90;;;;;;6166280;23;20051;-81
2022/03/27 01:13:15;;;;;;;12.48;6.05;;;6.20;99.90;;;;;;6167079;23;20072;-81
2022/03/27 01:15:43;;;;;;;11.98;5.55;;;6.20;99.90;;;;;;6142260;23;20013;-81
2022/03/27 01:18:09;;;;;;;13.65;6.00;;;6.10;99.90;;;;;;6143485;23;20043;-82
2022/03/27 01:20:38;;;;;;;14.85;5.15;;;6.10;99.90;;;;;;6143184;23;20009;-82
2022/03/27 01:23:09;;;;;;;15.38;6.40;;;6.00;99.90;;;;;;6165735;23;20032;-82
2022/03/27 01:25:38;;;;;;;16.25;6.95;;;6.10;99.90;;;;;;6165030;23;20017;-82
2022/03/27 01:28:05;;;;;;;14.77;6.03;;;6.20;99.90;;;;;;6166131;23;20390;-81
2022/03/27 01:30:31;;;;;;;14.45;6.80;;;6.20;99.90;;;;;;6141876;23;20009;-82
2022/03/27 01:32:57;;;;;;;17.00;7.22;;;6.20;99.90;;;;;;6165356;23;20406;-81
2022/03/27 01:35:22;;;;;;;17.48;6.82;;;6.20;99.90;;;;;;6166893;23;20017;-83
2022/03/27 01:37:49;;;;;;;19.83;8.55;;;6.20;99.90;;;;;;6166620;23;20032;-81
2022/03/27 01:40:16;;;;;;;18.58;8.60;;;6.30;99.90;;;;;;6165759;23;20050;-82
2022/03/27 01:42:41;;;;;;;22.65;9.73;;;6.30;99.90;;;;;;6166082;23;20012;-82
2022/03/27 01:45:09;;;;;;;25.08;9.88;;;6.40;99.90;;;;;;6142400;23;20132;-82
2022/03/27 01:47:35;;;;;;;23.33;10.23;;;6.40;99.90;;;;;;6143205;23;20116;-81
2022/03/27 01:50:01;;;;;;;22.20;8.85;;;6.40;99.90;;;;;;6165463;23;20024;-82
2022/03/27 01:52:27;;;;;;;19.83;9.30;;;6.40;99.90;;;;;;6166394;23;20036;-81
2022/03/27 01:54:52;;;;;;;18.60;8.98;;;6.40;99.90;;;;;;6160419;23;20020;-81
2022/03/27 01:57:18;;;;;;;21.58;9.60;;;6.30;99.90;;;;;;6158014;23;20063;-81
2022/03/27 01:59:43;;;;;;;16.92;8.52;;;6.20;99.90;;;;;;6157267;23;20013;-82
2022/03/27 02:02:09;;;;;;;20.80;10.02;;;6.10;99.90;;;;;;6157799;23;20103;-82
2022/03/27 02:04:35;;;;;;;18.85;8.05;;;6.00;99.90;;;;;;6157723;23;20049;-81
2022/03/27 02:07:01;;;;;;;19.95;7.47;;;6.00;99.90;;;;;;6157429;23;20032;-82
2022/03/27 02:09:26;;;;;;;19.98;7.63;;;6.00;99.90;;;;;;6157693;23;20017;-82
2022/03/27 02:11:52;;;;;;;12.32;6.13;;;5.90;99.90;;;;;;6157472;23;20095;-82
2022/03/27 02:14:18;;;;;;;14.90;7.65;;;5.90;99.90;;;;;;6132832;23;20012;-82
2022/03/27 02:16:44;;;;;;;13.32;7.30;;;5.80;99.90;;;;;;6157774;23;20009;-82
2022/03/27 02:19:10;;;;;;;18.33;7.80;;;5.80;99.90;;;;;;6157439;23;20020;-82
2022/03/27 02:21:37;;;;;;;16.73;8.25;;;5.70;99.90;;;;;;6132829;23;20378;-82
2022/03/27 02:24:03;;;;;;;19.63;7.47;;;5.70;99.90;;;;;;6157747;23;20013;-81
2022/03/27 02:26:32;;;;;;;20.48;9.75;;;5.70;99.90;;;;;;6159312;23;20089;-81
2022/03/27 02:28:58;;;;;;;18.98;8.27;;;5.60;99.90;;;;;;6165112;23;20016;-82
2022/03/27 02:31:24;;;;;;;20.63;9.30;;;5.60;99.90;;;;;;6165141;23;20091;-81
2022/03/27 02:33:50;;;;;;;20.42;9.23;;;5.60;99.90;;;;;;6165602;23;20230;-81
2022/03/27 02:36:16;;;;;;;21.05;9.88;;;5.70;99.90;;;;;;6165483;23;20013;-81
2022/03/27 02:38:43;;;;;;;19.42;9.20;;;5.60;99.90;;;;;;6165724;23;20017;-81
2022/03/27 02:41:08;;;;;;;26.63;10.75;;;5.60;99.90;;;;;;6163968;23;20040;-82
2022/03/27 02:43:38;;;;;;;22.65;9.75;;;5.50;99.90;;;;;;6140213;23;20354;-81
2022/03/27 02:46:05;;;;;;;21.30;10.18;;;5.50;99.90;;;;;;6165461;23;20064;-81
2022/03/27 02:48:31;;;;;;;23.83;10.13;;;5.50;99.90;;;;;;6165044;23;20044;-81
2022/03/27 02:50:57;;;;;;;21.75;11.07;;;5.50;99.90;;;;;;6140594;23;20013;-82
2022/03/27 02:53:23;;;;;;;25.58;11.60;;;5.50;99.90;;;;;;6141373;23;20084;-81
2022/03/27 02:55:48;;;;;;;22.85;10.23;;;5.50;99.90;;;;;;6192050;23;20330;-81
2022/03/27 02:58:14;;;;;;;20.25;9.27;;;5.40;99.90;;;;;;6166019;23;20056;-81
2022/03/27 03:00:43;;;;;;;19.08;9.00;;;5.40;99.90;;;;;;6140367;23;20012;-82
2022/03/27 03:03:10;;;;;;;18.88;8.75;;;5.40;99.90;;;;;;6165175;23;20013;-81
2022/03/27 03:05:38;;;;;;;21.70;9.45;;;5.40;99.90;;;;;;6164558;23;20020;-82
2022/03/27 03:08:06;;;;;;;19.67;8.15;;;5.30;99.90;;;;;;6141548;23;20009;-81
2022/03/27 03:10:32;;;;;;;17.73;7.65;;;5.20;99.90;;;;;;6164041;23;20013;-81
2022/03/27 03:12:58;;;;;;;16.83;7.47;;;5.20;99.90;;;;;;6163265;23;20071;-81
2022/03/27 03:15:24;;;;;;;18.52;8.77;;;5.20;99.90;;;;;;6190391;23;20470;-81
2022/03/27 03:17:50;;;;;;;20.33;8.98;;;5.10;99.90;;;;;;6164757;23;20501;-82
2022/03/27 03:20:16;;;;;;;15.55;6.90;;;5.10;99.90;;;;;;6164922;23;20009;-82
2022/03/27 03:22:41;;;;;;;12.85;6.10;;;5.00;99.90;;;;;;6164374;23;20032;-81
2022/03/27 03:25:08;;;;;;;18.48;7.78;;;5.10;99.90;;;;;;6164462;23;20358;-81
2022/03/27 03:27:34;;;;;;;16.73;6.85;;;5.00;99.90;;;;;;6163710;23;20009;-82
2022/03/27 03:29:59;;;;;;;15.15;7.20;;;5.00;99.90;;;;;;6164038;23;20024;-81
2022/03/27 03:32:26;;;;;;;14.20;6.40;;;5.00;99.90;;;;;;6163739;23;20075;-81
2022/03/27 03:34:52;;;;;;;15.00;6.82;;;5.00;99.90;;;;;;6162498;23;20026;-81
2022/03/27 03:37:18;;;;;;;17.35;7.03;;;5.00;99.90;;;;;;6138844;23;20013;-81
2022/03/27 03:39:45;;;;;;;14.13;6.30;;;5.00;99.90;;;;;;6162570;23;20669;-81
2022/03/27 03:42:11;;;;;;;20.75;7.15;;;5.00;99.90;;;;;;6163578;23;20013;-82
2022/03/27 03:44:37;;;;;;;18.08;6.80;;;5.00;99.90;;;;;;6163322;23;20087;-81
2022/03/27 03:47:03;;;;;;;16.90;7.97;;;5.00;99.90;;;;;;6162955;23;20020;-81
2022/03/27 03:49:29;;;;;;;18.30;7.07;;;5.00;99.90;;;;;;6162682;23;20021;-83
2022/03/27 03:51:54;;;;;;;14.85;6.85;;;4.90;99.90;;;;;;6163276;23;20071;-82
2022/03/27 03:54:20;;;;;;;19.63;7.70;;;4.90;99.90;;;;;;6165043;23;20012;-81
2022/03/27 03:56:46;;;;;;;18.40;7.55;;;4.90;99.90;;;;;;6163338;23;20338;-81
2022/03/27 03:59:12;;;;;;;19.42;7.88;;;4.90;99.90;;;;;;6162925;23;20378;-81
2022/03/27 04:01:37;;;;;;;16.25;6.75;;;4.90;99.90;;;;;;6163445;23;20019;-81
2022/03/27 04:04:03;;;;;;;16.33;6.70;;;4.90;99.90;;;;;;6164401;23;20025;-81
2022/03/27 04:06:28;;;;;;;20.50;7.20;;;4.90;99.90;;;;;;6171778;23;20017;-81
2022/03/27 04:08:54;;;;;;;23.23;8.48;;;4.90;99.90;;;;;;6167704;23;20024;-81
2022/03/27 04:11:19;;;;;;;14.23;6.35;;;4.90;99.90;;;;;;6165033;23;20078;-81
2022/03/27 04:13:45;;;;;;;20.27;8.10;;;4.90;99.90;;;;;;6164480;23;20070;-82
2022/03/27 04:16:14;;;;;;;19.67;7.88;;;4.90;99.90;;;;;;6164194;23;20020;-82
2022/03/27 04:18:40;;;;;;;21.80;7.30;;;4.90;99.90;;;;;;6166025;23;20041;-81
2022/03/27 04:21:06;;;;;;;21.50;8.40;;;4.90;99.90;;;;;;6165280;23;20061;-81
2022/03/27 04:23:32;;;;;;;19.08;7.15;;;4.80;99.90;;;;;;6165101;23;20009;-81
2022/03/27 04:25:57;;;;;;;19.70;6.72;;;4.80;99.90;;;;;;6165419;23;20077;-81
2022/03/27 04:28:23;;;;;;;20.73;8.30;;;4.80;99.90;;;;;;6138516;23;20055;-81
2022/03/27 04:30:49;;;;;;;23.90;8.60;;;4.80;99.90;;;;;;6163226;23;20525;-81
2022/03/27 04:33:14;;;;;;;21.88;7.93;;;4.80;99.90;;;;;;6164307;23;20072;-81
2022/03/27 04:35:40;;;;;;;24.92;8.32;;;4.80;99.90;;;;;;6163940;23;20044;-81
2022/03/27 04:38:06;;;;;;;23.02;7.63;;;4.80;99.90;;;;;;6139033;23;20013;-81
2022/03/27 04:40:31;;;;;;;21.45;7.88;;;4.80;99.90;;;;;;6164822;23;20013;-81
2022/03/27 04:42:57;;;;;;;26.42;7.72;;;4.70;99.90;;;;;;6164411;23;20017;-81
2022/03/27 04:45:23;;;;;;;24.17;8.25;;;4.70;99.90;;;;;;6163954;23;20477;-81
2022/03/27 04:47:49;;;;;;;19.20;7.63;;;4.70;99.90;;;;;;6165267;23;20516;-81
2022/03/27 04:50:14;;;;;;;21.92;7.72;;;4.70;99.90;;;;;;6164953;23;20017;-82
2022/03/27 04:52:40;;;;;;;19.52;7.88;;;4.70;99.90;;;;;;6165095;23;20013;-83
2022/03/27 04:55:07;;;;;;;26.80;8.45;;;4.70;99.90;;;;;;6165616;23;20017;-83
2022/03/27 04:57:41;;;;;;;25.88;7.43;;;4.70;99.90;;;;;;6164492;23;20013;-82
2022/03/27 05:00:12;;;;;;;22.17;7.70;;;4.70;99.90;;;;;;6164650;23;20020;-82
2022/03/27 05:02:38;;;;;;;20.50;7.97;;;4.60;99.90;;;;;;6140763;23;20013;-81
2022/03/27 05:05:06;;;;;;;22.02;7.95;;;4.50;99.90;;;;;;6165689;23;20017;-82
2022/03/27 05:07:32;;;;;;;19.17;7.85;;;4.60;99.90;;;;;;6165021;23;20100;-82
2022/03/27 05:09:57;;;;;;;23.75;7.82;;;4.60;99.90;;;;;;6164693;23;20097;-81
2022/03/27 05:12:23;;;;;;;24.27;8.23;;;4.60;99.90;;;;;;6165382;23;20017;-81
2022/03/27 05:14:49;;;;;;;25.50;8.05;;;4.60;99.90;;;;;;6165121;23;20017;-83
2022/03/27 05:17:14;;;;;;;22.75;8.32;;;4.60;99.90;;;;;;6165712;23;20009;-81
2022/03/27 05:19:41;;;;;;;20.45;7.63;;;4.60;99.90;;;;;;6164591;23;20032;-82
2022/03/27 05:22:07;;;;;;;21.40;7.25;;;4.60;99.90;;;;;;6165141;23;20024;-81
2022/03/27 05:24:33;;;;;;;23.45;7.85;;;4.70;99.90;;;;;;6164945;23;20079;-82
2022/03/27 05:26:58;;;;;;;18.27;6.53;;;4.70;99.90;;;;;;6161648;23;20020;-79
2022/03/27 05:29:24;;;;;;;23.15;7.78;;;4.70;99.90;;;;;;6158485;23;20354;-79
2022/03/27 05:31:51;;;;;;;18.77;7.57;;;4.70;99.90;;;;;;6158202;23;20021;-79
2022/03/27 05:34:17;;;;;;;16.00;6.85;;;4.80;99.90;;;;;;6158505;23;20037;-79
2022/03/27 05:36:43;;;;;;;19.38;7.18;;;4.80;99.90;;;;;;6158298;23;20491;-79
2022/03/27 05:39:08;;;;;;;23.95;7.63;;;4.90;99.90;;;;;;6158325;23;20013;-79
2022/03/27 05:41:34;;;;;;;30.73;7.95;;;4.90;99.90;;;;;;6158230;23;20040;-80
2022/03/27 05:44:00;;;;;;;20.52;8.45;;;5.00;99.90;;;;;;6158325;23;20020;-79
2022/03/27 05:46:25;;;;;;;21.10;7.53;;;5.00;99.90;;;;;;6157740;23;20027;-80
2022/03/27 05:48:51;;;;;;;21.02;8.15;;;5.10;99.90;;;;;;6157705;23;20044;-79
2022/03/27 05:51:16;;;;;;;21.02;8.82;;;5.20;99.90;;;;;;6157330;23;20092;-79
2022/03/27 05:53:43;;;;;;;28.52;8.93;;;5.20;99.90;;;;;;6157511;23;20391;-79
2022/03/27 05:56:09;;;;;;;24.95;8.15;;;5.30;99.90;;;;;;6157564;23;20067;-79
2022/03/27 05:58:37;;;;;;;19.90;7.15;;;5.40;99.90;;;;;;6157573;23;20013;-79
2022/03/27 06:01:03;;;;;;;26.45;7.82;;;5.40;99.90;;;;;;6132664;23;20112;-79
2022/03/27 06:03:28;;;;;;;24.45;6.85;;;5.50;99.90;;;;;;6157473;23;20041;-79
2022/03/27 06:05:54;;;;;;;21.73;8.25;;;5.50;99.90;;;;;;6132738;23;20017;-79
2022/03/27 06:08:19;;;;;;;24.00;7.38;;;5.50;99.90;;;;;;6157587;23;20017;-79
2022/03/27 06:10:45;;;;;;;24.10;7.30;;;5.50;99.90;;;;;;6157830;23;20013;-79
2022/03/27 06:13:10;;;;;;;24.98;6.93;;;5.50;99.90;;;;;;6157607;23;20063;-80
2022/03/27 06:15:36;;;;;;;21.42;7.15;;;5.60;99.90;;;;;;6158691;23;20017;-80
2022/03/27 06:18:02;;;;;;;17.50;6.38;;;5.60;99.90;;;;;;6157926;23;20013;-79
2022/03/27 06:20:32;;;;;;;30.75;8.80;;;5.60;99.90;;;;;;6158016;23;20119;-79
2022/03/27 06:22:58;;;;;;;34.30;8.52;;;5.70;99.90;;;;;;6157979;23;20021;-79
2022/03/27 06:25:25;;;;;;;29.10;7.65;;;5.70;99.90;;;;;;6158240;23;20009;-79
2022/03/27 06:27:51;;;;;;;21.15;7.15;;;5.80;99.90;;;;;;6157905;23;20108;-80
2022/03/27 06:30:20;;;;;;;20.45;7.80;;;5.80;99.90;;;;;;6158323;23;20097;-80
2022/03/27 06:32:46;;;;;;;21.90;8.88;;;5.80;99.90;;;;;;6158714;23;20017;-80
2022/03/27 06:35:15;;;;;;;26.08;7.85;;;5.90;99.90;;;;;;6158411;23;20009;-79
2022/03/27 06:37:40;;;;;;;23.20;8.52;;;6.00;99.90;;;;;;6157540;23;20012;-79
2022/03/27 06:40:08;;;;;;;19.88;9.02;;;6.10;99.90;;;;;;6133478;23;20009;-80
2022/03/27 06:42:33;;;;;;;19.55;7.20;;;6.20;99.90;;;;;;6159386;23;20021;-80
2022/03/27 06:44:59;;;;;;;25.52;8.40;;;6.20;99.90;;;;;;6158252;23;20020;-81
2022/03/27 06:47:27;;;;;;;32.28;8.05;;;6.40;99.90;;;;;;6158978;23;20009;-80
2022/03/27 06:49:54;;;;;;;30.40;9.52;;;6.50;99.90;;;;;;6158433;23;20013;-80
2022/03/27 06:52:21;;;;;;;31.15;10.43;;;6.50;99.90;;;;;;6159017;23;20052;-81
2022/03/27 06:54:47;;;;;;;32.75;8.73;;;6.60;99.90;;;;;;6159604;23;20010;-81
2022/03/27 06:57:14;;;;;;;32.85;9.07;;;6.60;99.90;;;;;;6161332;23;20036;-81
2022/03/27 07:05:09;;;;;;;34.72;9.90;;;6.60;99.90;;;;;;6161077;23;20024;-81
2022/03/27 07:07:36;;;;;;;29.08;8.77;;;6.80;99.90;;;;;;6161476;23;20021;-81
2022/03/27 07:10:02;;;;;;;27.58;7.82;;;6.80;99.90;;;;;;6161133;23;20013;-81
2022/03/27 07:12:28;;;;;;;35.88;9.45;;;6.80;99.90;;;;;;6160875;23;20013;-81
2022/03/27 07:14:54;;;;;;;45.95;12.02;;;6.80;99.90;;;;;;6161475;23;20346;-81
2022/03/27 07:17:19;;;;;;;32.33;8.95;;;6.90;99.90;;;;;;6136604;23;20017;-81
2022/03/27 07:19:46;;;;;;;33.50;11.48;;;6.90;99.90;;;;;;6136372;23;20394;-81
2022/03/27 07:22:11;;;;;;;39.65;10.98;;;6.90;99.90;;;;;;6160591;23;20019;-81
2022/03/27 07:24:37;;;;;;;40.30;10.93;;;7.00;99.90;;;;;;6160577;23;20088;-81
2022/03/27 07:27:03;;;;;;;47.17;12.30;;;7.00;99.90;;;;;;6137079;23;20013;-81
2022/03/27 07:29:32;;;;;;;43.15;11.70;;;7.10;99.90;;;;;;6162061;23;20044;-81
2022/03/27 07:31:58;;;;;;;48.75;11.65;;;7.20;99.90;;;;;;6162822;23;20318;-82
2022/03/27 07:34:24;;;;;;;46.22;10.85;;;7.20;99.90;;;;;;6162616;23;20012;-80
2022/03/27 07:36:49;;;;;;;42.17;9.75;;;7.20;99.90;;;;;;6162620;23;20458;-81
2022/03/27 07:39:15;;;;;;;36.80;9.23;;;7.30;99.90;;;;;;6138562;23;20033;-81
2022/03/27 07:41:41;;;;;;;35.42;9.63;;;7.30;99.90;;;;;;6163004;23;20009;-81
2022/03/27 07:44:07;;;;;;;34.45;8.15;;;7.30;99.90;;;;;;6163217;23;20017;-81
2022/03/27 07:46:32;;;;;;;31.08;7.70;;;7.40;99.90;;;;;;6138275;23;20016;-81
2022/03/27 07:48:58;;;;;;;33.10;9.63;;;7.50;99.90;;;;;;6162366;23;20458;-81
2022/03/27 07:51:24;;;;;;;42.60;9.02;;;7.60;99.90;;;;;;6162171;23;20087;-81
2022/03/27 07:53:49;;;;;;;30.15;10.23;;;7.60;99.90;;;;;;6162284;23;20025;-82
2022/03/27 07:56:15;;;;;;;31.00;9.20;;;7.70;99.90;;;;;;6162088;23;20013;-81
2022/03/27 07:58:40;;;;;;;33.38;9.15;;;7.60;99.90;;;;;;6162180;23;20013;-81
2022/03/27 08:01:06;;;;;;;26.10;7.55;;;7.60;99.90;;;;;;6161444;23;20063;-81
2022/03/27 08:03:34;;;;;;;30.85;9.77;;;7.60;99.90;;;;;;6162489;23;20016;-81
2022/03/27 08:06:00;;;;;;;26.23;8.77;;;7.60;99.90;;;;;;6162945;23;20059;-83
2022/03/27 08:08:26;;;;;;;37.15;9.73;;;7.70;99.90;;;;;;6162549;23;20024;-81
2022/03/27 08:10:51;;;;;;;31.45;11.23;;;7.70;99.90;;;;;;6161176;23;20363;-79
2022/03/27 08:13:17;;;;;;;26.98;9.45;;;7.70;99.90;;;;;;6159400;23;20020;-80
2022/03/27 08:15:42;;;;;;;36.33;9.25;;;7.70;99.90;;;;;;6161115;23;20087;-82
2022/03/27 08:18:12;;;;;;;37.60;10.13;;;7.80;99.90;;;;;;6161629;23;20013;-82
2022/03/27 08:20:39;;;;;;;39.83;8.88;;;7.80;99.90;;;;;;6162200;23;20021;-82
2022/03/27 08:23:04;;;;;;;33.10;8.50;;;7.90;99.90;;;;;;6162738;23;20040;-82
2022/03/27 08:28:15;;;;;;;40.75;12.63;;;8.10;99.90;;;;;;6162985;23;20021;-82
2022/03/27 08:30:40;;;;;;;43.45;11.93;;;8.20;99.90;;;;;;6163457;23;20013;-81
2022/03/27 08:33:06;;;;;;;25.58;8.13;;;8.30;99.90;;;;;;6166286;23;20017;-82
2022/03/27 08:35:32;;;;;;;28.75;8.85;;;8.60;99.90;;;;;;6165926;23;20013;-81
2022/03/27 08:37:58;;;;;;;32.72;8.60;;;9.00;99.90;;;;;;6167515;23;20658;-81
2022/03/27 08:40:23;;;;;;;34.13;9.75;;;9.70;99.90;;;;;;6141450;23;20020;-81
2022/03/27 08:42:50;;;;;;;35.25;10.15;;;10.40;99.90;;;;;;6163417;23;20021;-81
2022/03/27 08:45:16;;;;;;;36.13;10.43;;;10.80;99.90;;;;;;6161371;23;20062;-82
2022/03/27 08:47:41;;;;;;;34.45;9.77;;;10.80;99.90;;;;;;6160980;23;20021;-82
2022/03/27 08:50:34;;;;;;;33.60;8.82;;;10.70;99.90;;;;;;6158873;23;20013;-82
2022/03/27 08:53:08;;;;;;;27.85;7.40;;;10.70;99.90;;;;;;6155933;23;20017;-80
2022/03/27 08:55:57;;;;;;;26.55;8.30;;;11.20;99.90;;;;;;6189163;23;20334;-80
2022/03/27 08:58:31;;;;;;;30.85;8.75;;;11.80;99.90;;;;;;6164162;23;20013;-80
2022/03/27 09:00:57;;;;;;;25.83;8.05;;;12.30;99.90;;;;;;6161993;23;20016;-80
2022/03/27 09:03:23;;;;;;;34.67;7.95;;;12.80;99.90;;;;;;6165720;23;20087;-80
2022/03/27 09:05:49;;;;;;;22.20;7.70;;;13.00;99.90;;;;;;6163490;23;20017;-79
2022/03/27 09:08:15;;;;;;;27.00;8.75;;;13.20;99.90;;;;;;6161780;23;20017;-80
2022/03/27 09:10:41;;;;;;;28.58;8.18;;;13.30;99.90;;;;;;6190029;23;20088;-80
2022/03/27 09:13:16;;;;;;;28.00;7.03;;;13.50;99.90;;;;;;6137021;23;20036;-80
2022/03/27 09:15:45;;;;;;;29.60;7.85;;;13.70;99.90;;;;;;6159884;23;20084;-80
2022/03/27 09:18:14;;;;;;;32.00;7.57;;;14.10;99.90;;;;;;6160445;23;20013;-80
2022/03/27 09:20:50;;;;;;;22.52;7.65;;;14.30;99.90;;;;;;6161861;23;20017;-80
2022/03/27 09:23:21;;;;;;;26.27;6.85;;;14.20;99.90;;;;;;6162377;23;20489;-80
2022/03/27 09:26:13;;;;;;;25.90;7.65;;;13.80;99.90;;;;;;6185315;23;20068;-81
2022/03/27 09:28:41;;;;;;;;;;;13.90;99.90;;;;;;6134532;23;20005;-81
2022/03/27 09:31:22;;;;;;;31.17;7.55;;;13.90;99.90;;;;;;6134459;23;19912;-81
2022/03/27 09:34:00;;;;;;;27.05;6.70;;;14.00;99.90;;;;;;6159479;23;20013;-81
2022/03/27 09:36:30;;;;;;;24.13;7.53;;;14.20;99.90;;;;;;6157956;23;20023;-80
2022/03/27 09:39:13;;;;;;;32.75;7.80;;;14.40;99.90;;;;;;6158040;23;20454;-81
2022/03/27 09:41:59;;;;;;;22.95;7.15;;;14.50;99.90;;;;;;6157954;23;20063;-81
2022/03/27 09:44:39;;;;;;;24.77;7.72;;;14.60;99.90;;;;;;6158494;23;20016;-81
2022/03/27 09:47:10;;;;;;;26.08;6.72;;;14.70;99.90;;;;;;6139627;23;20009;-81
2022/03/27 09:49:37;;;;;;;25.73;7.07;;;15.10;99.90;;;;;;6137249;23;20028;-81
2022/03/27 09:52:13;;;;;;;29.20;7.13;;;15.40;99.90;;;;;;6192438;23;20009;-81
2022/03/27 09:54:51;;;;;;;24.83;6.50;;;15.60;99.90;;;;;;6160137;23;20041;-81
2022/03/27 09:57:21;;;;;;;26.35;7.38;;;15.80;99.90;;;;;;6134182;23;20013;-82
2022/03/27 09:59:47;;;;;;;25.90;7.43;;;15.90;99.90;;;;;;6158230;23;20016;-81
2022/03/27 10:02:19;;;;;;;26.15;7.53;;;15.90;99.90;;;;;;6134251;23;20339;-81
2022/03/27 10:04:56;;;;;;;25.95;6.90;;;15.90;99.90;;;;;;6158851;23;20017;-79
2022/03/27 10:07:24;;;;;;;22.48;6.70;;;16.10;99.90;;;;;;6161943;23;20493;-81
2022/03/27 10:09:51;;;;;;;27.30;7.82;;;16.10;99.90;;;;;;6159969;23;20013;-81
2022/03/27 10:12:17;;;;;;;25.52;7.20;;;16.00;99.90;;;;;;6165495;23;20013;-81
2022/03/27 10:14:47;;;;;;;25.88;6.38;;;16.10;99.90;;;;;;6205642;23;20012;-81
2022/03/27 10:17:14;;;;;;;38.35;7.65;;;15.90;99.90;;;;;;6172979;23;20071;-81
2022/03/27 10:19:48;;;;;;;30.60;6.20;;;15.70;99.90;;;;;;6157237;23;20057;-82
2022/03/27 10:22:20;;;;;;;27.80;7.22;;;15.40;99.90;;;;;;6157575;23;20032;-82
2022/03/27 10:24:49;;;;;;;26.27;6.43;;;15.10;99.90;;;;;;6158332;23;20053;-81
2022/03/27 10:27:17;;;;;;;21.20;6.13;;;14.70;99.90;;;;;;6183926;23;20338;-81
2022/03/27 10:29:43;;;;;;;25.10;6.05;;;14.40;99.90;;;;;;6133170;23;20021;-81
2022/03/27 10:32:10;;;;;;;19.88;5.55;;;14.30;99.90;;;;;;6158208;23;20013;-82
2022/03/27 10:34:59;;;;;;;30.33;4.97;;;14.30;99.90;;;;;;6157818;23;20342;-82
2022/03/27 10:37:42;;;;;;;22.38;5.00;;;14.00;99.90;;;;;;6157363;23;20023;-81
2022/03/27 10:40:18;;;;;;;15.43;4.55;;;13.80;99.90;;;;;;6157473;23;20012;-80
2022/03/27 10:42:57;;;;;;;19.08;5.00;;;13.60;99.90;;;;;;6132890;23;20063;-81
2022/03/27 10:45:22;;;;;;;27.58;6.55;;;13.60;99.90;;;;;;6133152;23;20461;-81
2022/03/27 10:48:12;;;;;;;26.05;7.43;;;13.70;99.90;;;;;;6157595;23;20013;-81
2022/03/27 10:50:58;;;;;;;25.55;5.20;;;13.90;99.90;;;;;;6132762;23;20040;-80
2022/03/27 10:53:25;;;;;;;22.52;4.90;;;14.20;99.90;;;;;;6156866;23;20083;-81
2022/03/27 10:55:53;;;;;;;25.67;5.22;;;14.30;99.90;;;;;;6184162;23;20434;-81
2022/03/27 10:58:39;;;;;;;21.35;5.82;;;14.40;99.90;;;;;;6183737;23;20059;-81
2022/03/27 11:01:08;;;;;;;27.27;6.35;;;14.50;99.90;;;;;;6132657;23;20013;-81
2022/03/27 11:03:48;;;;;;;20.83;5.75;;;14.60;99.90;;;;;;6183881;23;20060;-81
2022/03/27 11:06:25;;;;;;;22.40;5.00;;;14.70;99.90;;;;;;6156833;23;20017;-80
2022/03/27 11:08:52;;;;;;;18.60;4.60;;;14.80;99.90;;;;;;6183816;23;20083;-81
2022/03/27 11:11:43;;;;;;;22.85;4.88;;;14.80;99.90;;;;;;6132645;23;20095;-80
2022/03/27 11:14:09;;;;;;;16.75;4.60;;;14.60;99.90;;;;;;6158008;23;20100;-81
2022/03/27 11:17:07;;;;;;;23.83;6.05;;;14.40;99.90;;;;;;6132647;23;20021;-81
2022/03/27 11:19:41;;;;;;;19.58;4.68;;;14.40;99.90;;;;;;6132620;23;20051;-81
2022/03/27 11:22:06;;;;;;;19.08;5.38;;;14.30;99.90;;;;;;6160093;23;20378;-81
2022/03/27 11:24:32;;;;;;;16.33;4.65;;;14.30;99.90;;;;;;6159242;23;20009;-80
2022/03/27 11:26:58;;;;;;;21.27;5.13;;;14.40;99.90;;;;;;6133495;23;20048;-80
2022/03/27 11:29:24;;;;;;;21.23;4.40;;;14.70;99.90;;;;;;6133497;23;20009;-81
2022/03/27 11:32:07;;;;;;;16.23;4.68;;;14.90;99.90;;;;;;6157068;23;20389;-81
2022/03/27 11:34:34;;;;;;;24.75;5.10;;;15.20;99.80;;;;;;6183497;23;20019;-81
2022/03/27 11:37:25;;;;;;;25.58;5.05;;;15.20;99.90;;;;;;6156948;23;20472;-80
2022/03/27 11:39:52;;;;;;;23.20;5.05;;;15.10;98.30;;;;;;6157027;23;20518;-80
2022/03/27 11:42:29;;;;;;;21.98;4.70;;;15.00;99.90;;;;;;6134664;23;20013;-80
2022/03/27 11:45:16;;;;;;;22.70;4.50;;;15.00;96.70;;;;;;6133677;23;20455;-80
2022/03/27 11:47:45;;;;;;;18.75;4.80;;;14.90;99.90;;;;;;6133635;23;20092;-80
2022/03/27 11:50:40;;;;;;;14.30;3.70;;;15.00;99.90;;;;;;6157573;23;20095;-81
2022/03/27 11:53:05;;;;;;;16.88;3.95;;;15.20;84.10;;;;;;6126570;23;20076;-81
2022/03/27 11:55:33;;;;;;;19.88;4.50;;;15.20;99.70;;;;;;6132294;23;20397;-84
2022/03/27 11:58:00;;;;;;;19.88;3.78;;;15.30;99.40;;;;;;6156826;23;20005;-84
2022/03/27 12:00:31;;;;;;;21.98;4.45;;;15.30;98.90;;;;;;6157149;23;20047;-82
2022/03/27 12:02:57;;;;;;;22.35;4.60;;;15.20;97.70;;;;;;6157598;23;20468;-83
2022/03/27 12:13:45;;;;;;;17.13;3.50;;;15.40;92.80;;;;;;6153262;23;20044;-84
2022/03/27 12:17:11;;;;;;;15.45;3.80;;;15.70;95.00;;;;;;6152078;23;20056;-83
2022/03/27 12:24:04;;;;;;;19.92;4.72;;;15.70;93.20;;;;;;6152201;23;20017;-84
2022/03/27 12:29:43;;;;;;;18.00;3.92;;;15.90;92.30;;;;;;6133590;23;20024;-82
2022/03/27 12:32:13;;;;;;;21.83;5.47;;;16.00;96.30;;;;;;6130179;23;20390;-82
2022/03/27 12:34:53;;;;;;;14.10;4.50;;;16.10;94.80;;;;;;6184103;23;20126;-83
2022/03/27 12:37:21;;;;;;;19.02;3.95;;;16.20;86.90;;;;;;6183290;23;20441;-84
2022/03/27 12:39:49;;;;;;;22.55;4.90;;;16.40;95.40;;;;;;6208937;23;20009;-82
2022/03/27 12:42:32;;;;;;;19.40;4.25;;;16.50;93.10;;;;;;6189936;23;20188;-82
2022/03/27 12:50:15;;;;;;;17.48;3.42;;;16.30;94.30;;;;;;6221760;22;20032;-81
2022/03/27 12:52:45;;;;;;;15.77;4.43;;;16.20;93.50;;;;;;6191001;23;20062;-80
2022/03/27 12:55:11;;;;;;;17.05;3.95;;;16.00;94.90;;;;;;6216149;23;20008;-80
2022/03/27 12:57:52;;;;;;;17.00;4.45;;;16.00;93.50;;;;;;6215726;23;20130;-81
2022/03/27 13:00:20;;;;;;;25.05;5.18;;;15.90;75.50;;;;;;6214819;23;20520;-81
2022/03/27 13:02:45;;;;;;;18.55;4.20;;;15.90;96.10;;;;;;6214661;23;20083;-81
2022/03/27 13:05:11;;;;;;;17.60;3.70;;;15.90;96.10;;;;;;6215049;23;20484;-81
2022/03/27 13:07:57;;;;;;;20.08;3.85;;;16.00;96.60;;;;;;6190466;23;20052;-80
2022/03/27 13:10:25;;;;;;;18.50;4.80;;;16.20;85.70;;;;;;6215161;23;20026;-81
2022/03/27 13:13:32;;;;;;;16.00;3.30;;;16.30;90.60;;;;;;6189909;23;20012;-81
2022/03/27 13:15:57;;;;;;;21.45;3.88;;;16.40;77.80;;;;;;6161378;23;20047;-80
2022/03/27 13:18:32;;;;;;;18.35;3.97;;;16.30;94.20;;;;;;6221082;23;20013;-79
2022/03/27 13:21:13;;;;;;;20.83;3.92;;;16.40;93.10;;;;;;6238844;23;20008;-80